sensor_id;sensor_type;location;lat;lon;timestamp;P1;durP1;ratioP1;P2;durP2;ratioP2
46561;SDS011;32289;42.688;23.330;2024-01-07T00:01:33;32.63;;;12.98;;
46561;SDS011;32289;42.688;23.330;2024-01-07T00:05:14;29.35;;;12.45;;
46561;SDS011;32289;42.688;23.330;2024-01-07T00:08:55;30.20;;;12.25;;
46561;SDS011;32289;42.688;23.330;2024-01-07T00:12:36;26.38;;;11.57;;
46561;SDS011;32289;42.688;23.330;2024-01-07T00:16:16;25.38;;;11.95;;
46561;SDS011;32289;42.688;23.330;2024-01-07T00:19:57;29.08;;;12.02;;
46561;SDS011;32289;42.688;23.330;2024-01-07T00:23:38;25.63;;;13.30;;
46561;SDS011;32289;42.688;23.330;2024-01-07T00:27:19;32.45;;;13.65;;
46561;SDS011;32289;42.688;23.330;2024-01-07T00:30:59;31.92;;;12.40;;
46561;SDS011;32289;42.688;23.330;2024-01-07T00:34:40;21.88;;;10.48;;
46561;SDS011;32289;42.688;23.330;2024-01-07T00:38:21;29.27;;;12.30;;
46561;SDS011;32289;42.688;23.330;2024-01-07T00:42:01;28.15;;;12.40;;
46561;SDS011;32289;42.688;23.330;2024-01-07T00:45:42;23.17;;;11.32;;
46561;SDS011;32289;42.688;23.330;2024-01-07T00:49:23;24.45;;;11.98;;
46561;SDS011;32289;42.688;23.330;2024-01-07T00:53:03;25.33;;;11.25;;
46561;SDS011;32289;42.688;23.330;2024-01-07T00:56:45;29.00;;;12.57;;
46561;SDS011;32289;42.688;23.330;2024-01-07T01:00:25;33.97;;;11.85;;
46561;SDS011;32289;42.688;23.330;2024-01-07T01:04:07;24.33;;;10.98;;
46561;SDS011;32289;42.688;23.330;2024-01-07T01:07:48;33.35;;;12.07;;
46561;SDS011;32289;42.688;23.330;2024-01-07T01:11:28;23.45;;;11.13;;
46561;SDS011;32289;42.688;23.330;2024-01-07T01:15:09;27.80;;;11.85;;
46561;SDS011;32289;42.688;23.330;2024-01-07T01:18:50;21.50;;;11.13;;
46561;SDS011;32289;42.688;23.330;2024-01-07T01:22:30;28.10;;;10.60;;
46561;SDS011;32289;42.688;23.330;2024-01-07T01:26:11;23.95;;;10.10;;
46561;SDS011;32289;42.688;23.330;2024-01-07T01:29:52;27.10;;;11.10;;
46561;SDS011;32289;42.688;23.330;2024-01-07T01:33:33;24.17;;;11.40;;
46561;SDS011;32289;42.688;23.330;2024-01-07T01:37:13;22.23;;;10.60;;
46561;SDS011;32289;42.688;23.330;2024-01-07T01:40:54;29.83;;;10.63;;
46561;SDS011;32289;42.688;23.330;2024-01-07T01:44:35;29.48;;;13.43;;
46561;SDS011;32289;42.688;23.330;2024-01-07T01:48:16;25.13;;;12.00;;
46561;SDS011;32289;42.688;23.330;2024-01-07T01:51:56;31.63;;;12.13;;
46561;SDS011;32289;42.688;23.330;2024-01-07T01:55:37;24.02;;;10.45;;
46561;SDS011;32289;42.688;23.330;2024-01-07T01:59:18;21.77;;;10.55;;
46561;SDS011;32289;42.688;23.330;2024-01-07T02:02:59;22.95;;;10.35;;
46561;SDS011;32289;42.688;23.330;2024-01-07T02:06:40;21.90;;;10.27;;
46561;SDS011;32289;42.688;23.330;2024-01-07T02:10:22;29.63;;;10.57;;
46561;SDS011;32289;42.688;23.330;2024-01-07T02:14:02;23.77;;;10.10;;
46561;SDS011;32289;42.688;23.330;2024-01-07T02:17:43;22.33;;;10.93;;
46561;SDS011;32289;42.688;23.330;2024-01-07T02:21:24;29.40;;;11.10;;
46561;SDS011;32289;42.688;23.330;2024-01-07T02:25:04;26.63;;;10.00;;
46561;SDS011;32289;42.688;23.330;2024-01-07T02:28:48;20.58;;;10.25;;
46561;SDS011;32289;42.688;23.330;2024-01-07T02:32:29;24.70;;;11.65;;
46561;SDS011;32289;42.688;23.330;2024-01-07T02:36:19;23.73;;;10.90;;
46561;SDS011;32289;42.688;23.330;2024-01-07T02:40:00;28.65;;;11.18;;
46561;SDS011;32289;42.688;23.330;2024-01-07T02:43:41;22.98;;;10.38;;
46561;SDS011;32289;42.688;23.330;2024-01-07T02:47:22;30.70;;;10.80;;
46561;SDS011;32289;42.688;23.330;2024-01-07T02:51:03;21.77;;;10.23;;
46561;SDS011;32289;42.688;23.330;2024-01-07T02:54:45;20.75;;;10.32;;
46561;SDS011;32289;42.688;23.330;2024-01-07T02:58:26;27.30;;;11.60;;
46561;SDS011;32289;42.688;23.330;2024-01-07T03:02:07;22.88;;;11.32;;
46561;SDS011;32289;42.688;23.330;2024-01-07T03:05:47;23.35;;;10.15;;
46561;SDS011;32289;42.688;23.330;2024-01-07T03:09:28;21.10;;;10.52;;
46561;SDS011;32289;42.688;23.330;2024-01-07T03:13:09;25.98;;;9.60;;
46561;SDS011;32289;42.688;23.330;2024-01-07T03:16:51;27.50;;;11.80;;
46561;SDS011;32289;42.688;23.330;2024-01-07T03:20:31;22.88;;;11.25;;
46561;SDS011;32289;42.688;23.330;2024-01-07T03:24:12;27.45;;;9.73;;
46561;SDS011;32289;42.688;23.330;2024-01-07T03:27:52;23.65;;;10.43;;
46561;SDS011;32289;42.688;23.330;2024-01-07T03:31:33;18.20;;;9.90;;
46561;SDS011;32289;42.688;23.330;2024-01-07T03:35:14;19.83;;;9.65;;
46561;SDS011;32289;42.688;23.330;2024-01-07T03:38:54;18.10;;;8.50;;
46561;SDS011;32289;42.688;23.330;2024-01-07T03:42:35;18.33;;;8.85;;
46561;SDS011;32289;42.688;23.330;2024-01-07T03:46:19;18.58;;;8.40;;
46561;SDS011;32289;42.688;23.330;2024-01-07T03:49:59;22.30;;;9.20;;
46561;SDS011;32289;42.688;23.330;2024-01-07T03:53:40;14.90;;;7.60;;
46561;SDS011;32289;42.688;23.330;2024-01-07T03:57:20;13.30;;;5.63;;
46561;SDS011;32289;42.688;23.330;2024-01-07T04:01:01;13.43;;;6.20;;
46561;SDS011;32289;42.688;23.330;2024-01-07T04:04:42;10.18;;;4.47;;
46561;SDS011;32289;42.688;23.330;2024-01-07T04:08:23;12.63;;;5.47;;
46561;SDS011;32289;42.688;23.330;2024-01-07T04:12:03;13.60;;;6.13;;
46561;SDS011;32289;42.688;23.330;2024-01-07T04:15:44;15.68;;;5.57;;
46561;SDS011;32289;42.688;23.330;2024-01-07T04:19:25;11.35;;;5.72;;
46561;SDS011;32289;42.688;23.330;2024-01-07T04:23:06;12.20;;;5.80;;
46561;SDS011;32289;42.688;23.330;2024-01-07T04:26:46;14.80;;;6.43;;
46561;SDS011;32289;42.688;23.330;2024-01-07T04:30:27;12.85;;;5.85;;
46561;SDS011;32289;42.688;23.330;2024-01-07T04:34:08;9.77;;;5.70;;
46561;SDS011;32289;42.688;23.330;2024-01-07T04:37:48;13.85;;;6.35;;
46561;SDS011;32289;42.688;23.330;2024-01-07T04:41:29;14.75;;;5.35;;
46561;SDS011;32289;42.688;23.330;2024-01-07T04:45:10;12.55;;;4.80;;
46561;SDS011;32289;42.688;23.330;2024-01-07T04:48:50;10.10;;;5.18;;
46561;SDS011;32289;42.688;23.330;2024-01-07T04:52:31;12.52;;;5.43;;
46561;SDS011;32289;42.688;23.330;2024-01-07T04:56:12;14.05;;;4.93;;
46561;SDS011;32289;42.688;23.330;2024-01-07T04:59:52;9.85;;;5.57;;
46561;SDS011;32289;42.688;23.330;2024-01-07T05:03:33;10.15;;;5.50;;
46561;SDS011;32289;42.688;23.330;2024-01-07T05:07:15;15.00;;;6.80;;
46561;SDS011;32289;42.688;23.330;2024-01-07T05:10:56;8.75;;;4.65;;
46561;SDS011;32289;42.688;23.330;2024-01-07T05:14:37;13.57;;;5.95;;
46561;SDS011;32289;42.688;23.330;2024-01-07T05:18:17;12.40;;;6.15;;
46561;SDS011;32289;42.688;23.330;2024-01-07T05:21:59;11.13;;;5.13;;
46561;SDS011;32289;42.688;23.330;2024-01-07T05:25:41;10.70;;;5.78;;
46561;SDS011;32289;42.688;23.330;2024-01-07T05:29:23;13.95;;;5.80;;
46561;SDS011;32289;42.688;23.330;2024-01-07T05:33:04;9.15;;;5.70;;
46561;SDS011;32289;42.688;23.330;2024-01-07T05:36:45;11.60;;;4.82;;
46561;SDS011;32289;42.688;23.330;2024-01-07T05:40:25;13.05;;;4.80;;
46561;SDS011;32289;42.688;23.330;2024-01-07T05:44:06;9.32;;;5.25;;
46561;SDS011;32289;42.688;23.330;2024-01-07T05:47:48;8.02;;;4.72;;
46561;SDS011;32289;42.688;23.330;2024-01-07T05:51:29;11.50;;;5.55;;
46561;SDS011;32289;42.688;23.330;2024-01-07T05:55:12;8.90;;;5.00;;
46561;SDS011;32289;42.688;23.330;2024-01-07T05:58:53;14.30;;;6.13;;
46561;SDS011;32289;42.688;23.330;2024-01-07T06:02:34;13.38;;;5.00;;
46561;SDS011;32289;42.688;23.330;2024-01-07T06:06:15;8.77;;;4.47;;
46561;SDS011;32289;42.688;23.330;2024-01-07T06:09:56;10.30;;;4.60;;
46561;SDS011;32289;42.688;23.330;2024-01-07T06:13:37;8.52;;;4.57;;
46561;SDS011;32289;42.688;23.330;2024-01-07T06:17:18;9.10;;;4.80;;
46561;SDS011;32289;42.688;23.330;2024-01-07T06:20:58;12.18;;;4.90;;
46561;SDS011;32289;42.688;23.330;2024-01-07T06:24:39;9.85;;;5.15;;
46561;SDS011;32289;42.688;23.330;2024-01-07T06:28:20;10.23;;;4.75;;
46561;SDS011;32289;42.688;23.330;2024-01-07T06:32:01;8.00;;;4.65;;
46561;SDS011;32289;42.688;23.330;2024-01-07T06:35:43;11.85;;;5.07;;
46561;SDS011;32289;42.688;23.330;2024-01-07T06:39:25;12.00;;;5.82;;
46561;SDS011;32289;42.688;23.330;2024-01-07T06:43:07;14.35;;;5.60;;
46561;SDS011;32289;42.688;23.330;2024-01-07T06:46:47;11.48;;;5.40;;
46561;SDS011;32289;42.688;23.330;2024-01-07T06:50:28;13.93;;;6.28;;
46561;SDS011;32289;42.688;23.330;2024-01-07T06:54:09;9.98;;;5.43;;
46561;SDS011;32289;42.688;23.330;2024-01-07T06:57:49;12.48;;;5.38;;
46561;SDS011;32289;42.688;23.330;2024-01-07T07:01:30;12.30;;;6.10;;
46561;SDS011;32289;42.688;23.330;2024-01-07T07:05:11;15.75;;;7.68;;
46561;SDS011;32289;42.688;23.330;2024-01-07T07:08:51;17.60;;;7.72;;
46561;SDS011;32289;42.688;23.330;2024-01-07T07:12:32;12.32;;;6.57;;
46561;SDS011;32289;42.688;23.330;2024-01-07T07:16:13;17.70;;;7.03;;
46561;SDS011;32289;42.688;23.330;2024-01-07T07:19:53;14.50;;;6.75;;
46561;SDS011;32289;42.688;23.330;2024-01-07T07:23:34;17.98;;;8.48;;
46561;SDS011;32289;42.688;23.330;2024-01-07T07:27:15;10.57;;;6.45;;
46561;SDS011;32289;42.688;23.330;2024-01-07T07:30:56;20.60;;;8.57;;
46561;SDS011;32289;42.688;23.330;2024-01-07T07:34:36;12.18;;;5.65;;
46561;SDS011;32289;42.688;23.330;2024-01-07T07:38:17;11.15;;;6.45;;
46561;SDS011;32289;42.688;23.330;2024-01-07T07:42:01;15.85;;;7.15;;
46561;SDS011;32289;42.688;23.330;2024-01-07T07:45:42;13.20;;;7.35;;
46561;SDS011;32289;42.688;23.330;2024-01-07T07:49:22;14.43;;;5.90;;
46561;SDS011;32289;42.688;23.330;2024-01-07T07:53:03;14.23;;;6.07;;
46561;SDS011;32289;42.688;23.330;2024-01-07T07:56:44;17.63;;;6.40;;
46561;SDS011;32289;42.688;23.330;2024-01-07T08:00:24;17.67;;;7.10;;
46561;SDS011;32289;42.688;23.330;2024-01-07T08:04:05;13.65;;;5.82;;
46561;SDS011;32289;42.688;23.330;2024-01-07T08:07:46;10.20;;;5.97;;
46561;SDS011;32289;42.688;23.330;2024-01-07T08:11:27;15.40;;;6.32;;
46561;SDS011;32289;42.688;23.330;2024-01-07T08:15:09;14.30;;;6.57;;
46561;SDS011;32289;42.688;23.330;2024-01-07T08:18:51;10.32;;;5.22;;
46561;SDS011;32289;42.688;23.330;2024-01-07T08:22:31;12.93;;;6.28;;
46561;SDS011;32289;42.688;23.330;2024-01-07T08:26:12;9.77;;;5.65;;
46561;SDS011;32289;42.688;23.330;2024-01-07T08:29:57;9.38;;;5.78;;
46561;SDS011;32289;42.688;23.330;2024-01-07T08:33:38;10.52;;;6.05;;
46561;SDS011;32289;42.688;23.330;2024-01-07T08:37:19;13.73;;;6.13;;
46561;SDS011;32289;42.688;23.330;2024-01-07T08:40:59;15.52;;;6.95;;
46561;SDS011;32289;42.688;23.330;2024-01-07T08:44:40;13.85;;;7.28;;
46561;SDS011;32289;42.688;23.330;2024-01-07T08:48:23;17.90;;;8.05;;
46561;SDS011;32289;42.688;23.330;2024-01-07T08:52:04;13.70;;;7.32;;
46561;SDS011;32289;42.688;23.330;2024-01-07T08:55:45;12.27;;;7.10;;
46561;SDS011;32289;42.688;23.330;2024-01-07T08:59:26;14.05;;;7.15;;
46561;SDS011;32289;42.688;23.330;2024-01-07T09:03:07;11.43;;;6.55;;
46561;SDS011;32289;42.688;23.330;2024-01-07T09:06:48;15.68;;;5.95;;
46561;SDS011;32289;42.688;23.330;2024-01-07T09:10:31;11.00;;;6.70;;
46561;SDS011;32289;42.688;23.330;2024-01-07T09:14:11;13.93;;;7.32;;
46561;SDS011;32289;42.688;23.330;2024-01-07T09:17:54;16.48;;;6.78;;
46561;SDS011;32289;42.688;23.330;2024-01-07T09:21:35;13.23;;;6.93;;
46561;SDS011;32289;42.688;23.330;2024-01-07T09:25:15;13.25;;;6.70;;
46561;SDS011;32289;42.688;23.330;2024-01-07T09:28:56;11.60;;;6.13;;
46561;SDS011;32289;42.688;23.330;2024-01-07T09:32:37;10.70;;;6.45;;
46561;SDS011;32289;42.688;23.330;2024-01-07T09:36:17;12.68;;;6.72;;
46561;SDS011;32289;42.688;23.330;2024-01-07T09:39:58;11.45;;;6.35;;
46561;SDS011;32289;42.688;23.330;2024-01-07T09:43:39;9.82;;;5.40;;
46561;SDS011;32289;42.688;23.330;2024-01-07T09:47:20;11.98;;;6.25;;
46561;SDS011;32289;42.688;23.330;2024-01-07T09:51:03;11.43;;;6.05;;
46561;SDS011;32289;42.688;23.330;2024-01-07T09:54:49;10.13;;;6.35;;
46561;SDS011;32289;42.688;23.330;2024-01-07T09:58:32;10.57;;;6.63;;
46561;SDS011;32289;42.688;23.330;2024-01-07T10:02:13;12.18;;;6.70;;
46561;SDS011;32289;42.688;23.330;2024-01-07T10:05:55;12.43;;;6.78;;
46561;SDS011;32289;42.688;23.330;2024-01-07T10:09:36;11.82;;;6.32;;
46561;SDS011;32289;42.688;23.330;2024-01-07T10:13:17;10.55;;;5.88;;
46561;SDS011;32289;42.688;23.330;2024-01-07T10:16:57;10.00;;;5.00;;
46561;SDS011;32289;42.688;23.330;2024-01-07T10:20:38;8.23;;;5.35;;
46561;SDS011;32289;42.688;23.330;2024-01-07T10:24:19;9.45;;;4.30;;
46561;SDS011;32289;42.688;23.330;2024-01-07T10:28:00;7.82;;;4.53;;
46561;SDS011;32289;42.688;23.330;2024-01-07T10:31:41;5.93;;;3.35;;
46561;SDS011;32289;42.688;23.330;2024-01-07T10:35:24;6.35;;;3.63;;
46561;SDS011;32289;42.688;23.330;2024-01-07T10:39:13;8.07;;;3.05;;
46561;SDS011;32289;42.688;23.330;2024-01-07T10:42:56;6.30;;;3.13;;
46561;SDS011;32289;42.688;23.330;2024-01-07T10:46:38;6.20;;;2.53;;
46561;SDS011;32289;42.688;23.330;2024-01-07T10:50:20;6.97;;;3.03;;
46561;SDS011;32289;42.688;23.330;2024-01-07T10:54:02;5.40;;;2.70;;
46561;SDS011;32289;42.688;23.330;2024-01-07T10:57:43;8.00;;;2.40;;
46561;SDS011;32289;42.688;23.330;2024-01-07T11:01:27;6.13;;;3.40;;
46561;SDS011;32289;42.688;23.330;2024-01-07T11:05:11;6.03;;;3.00;;
46561;SDS011;32289;42.688;23.330;2024-01-07T11:08:58;4.30;;;2.53;;
46561;SDS011;32289;42.688;23.330;2024-01-07T11:12:43;6.75;;;2.60;;
46561;SDS011;32289;42.688;23.330;2024-01-07T11:20:20;6.25;;;2.90;;
46561;SDS011;32289;42.688;23.330;2024-01-07T11:24:01;5.03;;;2.38;;
46561;SDS011;32289;42.688;23.330;2024-01-07T11:27:42;3.70;;;2.03;;
46561;SDS011;32289;42.688;23.330;2024-01-07T11:32:05;8.75;;;2.50;;
46561;SDS011;32289;42.688;23.330;2024-01-07T11:39:37;3.50;;;1.65;;
46561;SDS011;32289;42.688;23.330;2024-01-07T11:43:18;3.72;;;2.00;;
46561;SDS011;32289;42.688;23.330;2024-01-07T11:46:58;3.55;;;1.50;;
46561;SDS011;32289;42.688;23.330;2024-01-07T11:50:39;4.82;;;2.08;;
46561;SDS011;32289;42.688;23.330;2024-01-07T11:54:20;4.72;;;1.95;;
46561;SDS011;32289;42.688;23.330;2024-01-07T11:58:03;4.30;;;2.35;;
46561;SDS011;32289;42.688;23.330;2024-01-07T12:01:44;6.13;;;2.45;;
46561;SDS011;32289;42.688;23.330;2024-01-07T12:05:24;4.95;;;2.45;;
46561;SDS011;32289;42.688;23.330;2024-01-07T12:09:05;4.82;;;2.10;;
46561;SDS011;32289;42.688;23.330;2024-01-07T12:12:46;5.45;;;1.83;;
46561;SDS011;32289;42.688;23.330;2024-01-07T12:16:27;4.07;;;1.95;;
46561;SDS011;32289;42.688;23.330;2024-01-07T12:20:09;2.92;;;1.80;;
46561;SDS011;32289;42.688;23.330;2024-01-07T12:23:50;5.25;;;2.63;;
46561;SDS011;32289;42.688;23.330;2024-01-07T12:27:32;6.90;;;3.13;;
46561;SDS011;32289;42.688;23.330;2024-01-07T12:31:14;9.60;;;3.80;;
46561;SDS011;32289;42.688;23.330;2024-01-07T12:34:58;7.88;;;3.13;;
46561;SDS011;32289;42.688;23.330;2024-01-07T12:38:40;6.32;;;2.92;;
46561;SDS011;32289;42.688;23.330;2024-01-07T12:42:21;6.60;;;3.20;;
46561;SDS011;32289;42.688;23.330;2024-01-07T12:46:03;7.28;;;4.55;;
46561;SDS011;32289;42.688;23.330;2024-01-07T12:49:45;8.43;;;2.75;;
46561;SDS011;32289;42.688;23.330;2024-01-07T12:53:26;6.15;;;2.97;;
46561;SDS011;32289;42.688;23.330;2024-01-07T12:57:06;7.38;;;3.20;;
46561;SDS011;32289;42.688;23.330;2024-01-07T13:00:50;14.65;;;4.10;;
46561;SDS011;32289;42.688;23.330;2024-01-07T13:04:31;8.18;;;3.92;;
46561;SDS011;32289;42.688;23.330;2024-01-07T13:08:12;6.20;;;2.80;;
46561;SDS011;32289;42.688;23.330;2024-01-07T13:11:53;9.52;;;3.00;;
46561;SDS011;32289;42.688;23.330;2024-01-07T13:15:34;8.63;;;2.88;;
46561;SDS011;32289;42.688;23.330;2024-01-07T13:19:15;7.85;;;3.70;;
46561;SDS011;32289;42.688;23.330;2024-01-07T13:22:55;6.25;;;3.50;;
46561;SDS011;32289;42.688;23.330;2024-01-07T13:26:39;10.35;;;5.07;;
46561;SDS011;32289;42.688;23.330;2024-01-07T13:30:25;7.85;;;4.43;;
46561;SDS011;32289;42.688;23.330;2024-01-07T13:34:06;7.00;;;3.47;;
46561;SDS011;32289;42.688;23.330;2024-01-07T13:37:50;8.68;;;4.28;;
46561;SDS011;32289;42.688;23.330;2024-01-07T13:41:31;8.07;;;3.75;;
46561;SDS011;32289;42.688;23.330;2024-01-07T13:45:12;5.60;;;2.90;;
46561;SDS011;32289;42.688;23.330;2024-01-07T13:48:53;5.57;;;2.83;;
46561;SDS011;32289;42.688;23.330;2024-01-07T13:52:34;6.80;;;2.88;;
46561;SDS011;32289;42.688;23.330;2024-01-07T13:56:21;9.10;;;3.05;;
46561;SDS011;32289;42.688;23.330;2024-01-07T14:00:02;6.30;;;2.80;;
46561;SDS011;32289;42.688;23.330;2024-01-07T14:03:49;10.80;;;4.28;;
46561;SDS011;32289;42.688;23.330;2024-01-07T14:07:29;9.90;;;3.28;;
46561;SDS011;32289;42.688;23.330;2024-01-07T14:11:10;8.00;;;3.75;;
46561;SDS011;32289;42.688;23.330;2024-01-07T14:14:51;11.50;;;4.60;;
46561;SDS011;32289;42.688;23.330;2024-01-07T14:18:32;9.63;;;4.28;;
46561;SDS011;32289;42.688;23.330;2024-01-07T14:22:12;12.73;;;4.68;;
46561;SDS011;32289;42.688;23.330;2024-01-07T14:25:54;12.55;;;4.35;;
46561;SDS011;32289;42.688;23.330;2024-01-07T14:29:37;8.45;;;4.50;;
46561;SDS011;32289;42.688;23.330;2024-01-07T14:33:18;13.88;;;5.72;;
46561;SDS011;32289;42.688;23.330;2024-01-07T14:36:59;15.20;;;5.90;;
46561;SDS011;32289;42.688;23.330;2024-01-07T14:40:40;9.88;;;4.78;;
46561;SDS011;32289;42.688;23.330;2024-01-07T14:44:24;11.35;;;5.18;;
46561;SDS011;32289;42.688;23.330;2024-01-07T14:48:05;10.65;;;5.63;;
46561;SDS011;32289;42.688;23.330;2024-01-07T14:51:46;11.27;;;4.95;;
46561;SDS011;32289;42.688;23.330;2024-01-07T14:55:28;11.95;;;5.80;;
46561;SDS011;32289;42.688;23.330;2024-01-07T14:59:11;8.00;;;4.85;;
46561;SDS011;32289;42.688;23.330;2024-01-07T15:02:51;10.55;;;3.95;;
46561;SDS011;32289;42.688;23.330;2024-01-07T15:06:38;8.38;;;4.20;;
46561;SDS011;32289;42.688;23.330;2024-01-07T15:10:21;8.70;;;4.80;;
46561;SDS011;32289;42.688;23.330;2024-01-07T15:14:01;9.00;;;4.88;;
46561;SDS011;32289;42.688;23.330;2024-01-07T15:17:46;11.43;;;6.88;;
46561;SDS011;32289;42.688;23.330;2024-01-07T15:21:27;11.90;;;5.97;;
46561;SDS011;32289;42.688;23.330;2024-01-07T15:25:08;11.68;;;6.20;;
46561;SDS011;32289;42.688;23.330;2024-01-07T15:28:49;14.20;;;6.47;;
46561;SDS011;32289;42.688;23.330;2024-01-07T15:32:29;19.98;;;6.57;;
46561;SDS011;32289;42.688;23.330;2024-01-07T15:36:10;20.23;;;7.88;;
46561;SDS011;32289;42.688;23.330;2024-01-07T15:39:51;21.15;;;9.63;;
46561;SDS011;32289;42.688;23.330;2024-01-07T15:43:33;21.50;;;8.95;;
46561;SDS011;32289;42.688;23.330;2024-01-07T15:47:14;18.50;;;8.68;;
46561;SDS011;32289;42.688;23.330;2024-01-07T15:50:54;18.80;;;9.27;;
46561;SDS011;32289;42.688;23.330;2024-01-07T15:54:35;19.75;;;8.38;;
46561;SDS011;32289;42.688;23.330;2024-01-07T15:58:15;25.48;;;10.32;;
46561;SDS011;32289;42.688;23.330;2024-01-07T16:01:56;20.48;;;9.82;;
46561;SDS011;32289;42.688;23.330;2024-01-07T16:05:37;22.48;;;11.57;;
46561;SDS011;32289;42.688;23.330;2024-01-07T16:09:17;23.65;;;12.65;;
46561;SDS011;32289;42.688;23.330;2024-01-07T16:12:58;20.75;;;10.98;;
46561;SDS011;32289;42.688;23.330;2024-01-07T16:16:39;26.92;;;13.80;;
46561;SDS011;32289;42.688;23.330;2024-01-07T16:20:21;29.73;;;13.55;;
46561;SDS011;32289;42.688;23.330;2024-01-07T16:24:02;23.38;;;12.05;;
46561;SDS011;32289;42.688;23.330;2024-01-07T16:27:43;22.52;;;10.75;;
46561;SDS011;32289;42.688;23.330;2024-01-07T16:31:24;22.35;;;9.48;;
46561;SDS011;32289;42.688;23.330;2024-01-07T16:35:05;17.92;;;9.95;;
46561;SDS011;32289;42.688;23.330;2024-01-07T16:38:46;17.92;;;8.85;;
46561;SDS011;32289;42.688;23.330;2024-01-07T16:42:26;24.45;;;10.13;;
46561;SDS011;32289;42.688;23.330;2024-01-07T16:46:07;15.65;;;9.07;;
46561;SDS011;32289;42.688;23.330;2024-01-07T16:49:48;18.15;;;8.18;;
46561;SDS011;32289;42.688;23.330;2024-01-07T16:53:28;22.85;;;10.02;;
46561;SDS011;32289;42.688;23.330;2024-01-07T16:57:09;15.55;;;8.30;;
46561;SDS011;32289;42.688;23.330;2024-01-07T17:00:50;18.20;;;8.75;;
46561;SDS011;32289;42.688;23.330;2024-01-07T17:04:32;18.58;;;9.20;;
46561;SDS011;32289;42.688;23.330;2024-01-07T17:08:12;17.52;;;8.77;;
46561;SDS011;32289;42.688;23.330;2024-01-07T17:11:53;26.00;;;14.43;;
46561;SDS011;32289;42.688;23.330;2024-01-07T17:15:34;47.38;;;22.60;;
46561;SDS011;32289;42.688;23.330;2024-01-07T17:19:15;36.35;;;19.13;;
46561;SDS011;32289;42.688;23.330;2024-01-07T17:22:55;42.85;;;19.10;;
46561;SDS011;32289;42.688;23.330;2024-01-07T17:26:36;31.48;;;16.15;;
46561;SDS011;32289;42.688;23.330;2024-01-07T17:30:18;33.00;;;17.15;;
46561;SDS011;32289;42.688;23.330;2024-01-07T17:33:59;34.22;;;17.95;;
46561;SDS011;32289;42.688;23.330;2024-01-07T17:37:39;48.70;;;21.13;;
46561;SDS011;32289;42.688;23.330;2024-01-07T17:41:20;38.25;;;20.08;;
46561;SDS011;32289;42.688;23.330;2024-01-07T17:45:01;44.53;;;22.38;;
46561;SDS011;32289;42.688;23.330;2024-01-07T17:48:44;37.75;;;19.55;;
46561;SDS011;32289;42.688;23.330;2024-01-07T17:52:25;42.38;;;17.05;;
46561;SDS011;32289;42.688;23.330;2024-01-07T17:56:07;36.95;;;18.77;;
46561;SDS011;32289;42.688;23.330;2024-01-07T17:59:47;40.22;;;17.48;;
46561;SDS011;32289;42.688;23.330;2024-01-07T18:03:28;37.30;;;19.10;;
46561;SDS011;32289;42.688;23.330;2024-01-07T18:07:09;33.85;;;16.45;;
46561;SDS011;32289;42.688;23.330;2024-01-07T18:10:50;29.00;;;16.08;;
46561;SDS011;32289;42.688;23.330;2024-01-07T18:14:31;33.30;;;15.55;;
46561;SDS011;32289;42.688;23.330;2024-01-07T18:18:12;31.73;;;16.52;;
46561;SDS011;32289;42.688;23.330;2024-01-07T18:21:53;27.35;;;14.38;;
46561;SDS011;32289;42.688;23.330;2024-01-07T18:25:34;33.55;;;15.10;;
46561;SDS011;32289;42.688;23.330;2024-01-07T18:29:16;36.22;;;16.30;;
46561;SDS011;32289;42.688;23.330;2024-01-07T18:32:57;28.58;;;14.48;;
46561;SDS011;32289;42.688;23.330;2024-01-07T18:36:38;32.38;;;16.85;;
46561;SDS011;32289;42.688;23.330;2024-01-07T18:40:21;29.45;;;14.55;;
46561;SDS011;32289;42.688;23.330;2024-01-07T18:44:02;31.95;;;14.85;;
46561;SDS011;32289;42.688;23.330;2024-01-07T18:47:43;30.30;;;12.70;;
46561;SDS011;32289;42.688;23.330;2024-01-07T18:51:24;29.83;;;14.20;;
46561;SDS011;32289;42.688;23.330;2024-01-07T18:55:05;23.35;;;12.13;;
46561;SDS011;32289;42.688;23.330;2024-01-07T18:58:48;21.50;;;12.18;;
46561;SDS011;32289;42.688;23.330;2024-01-07T19:02:29;21.17;;;11.27;;
46561;SDS011;32289;42.688;23.330;2024-01-07T19:06:09;18.58;;;9.77;;
46561;SDS011;32289;42.688;23.330;2024-01-07T19:09:58;19.00;;;9.00;;
46561;SDS011;32289;42.688;23.330;2024-01-07T19:13:39;22.38;;;10.68;;
46561;SDS011;32289;42.688;23.330;2024-01-07T19:17:20;23.25;;;9.27;;
46561;SDS011;32289;42.688;23.330;2024-01-07T19:21:02;20.80;;;9.70;;
46561;SDS011;32289;42.688;23.330;2024-01-07T19:24:45;21.15;;;10.02;;
46561;SDS011;32289;42.688;23.330;2024-01-07T19:28:26;17.30;;;9.52;;
46561;SDS011;32289;42.688;23.330;2024-01-07T19:32:07;20.98;;;10.15;;
46561;SDS011;32289;42.688;23.330;2024-01-07T19:35:48;20.42;;;10.73;;
46561;SDS011;32289;42.688;23.330;2024-01-07T19:39:28;22.92;;;11.23;;
46561;SDS011;32289;42.688;23.330;2024-01-07T19:43:09;23.73;;;10.20;;
46561;SDS011;32289;42.688;23.330;2024-01-07T19:46:50;26.08;;;11.80;;
46561;SDS011;32289;42.688;23.330;2024-01-07T19:50:31;23.95;;;10.48;;
46561;SDS011;32289;42.688;23.330;2024-01-07T19:54:12;20.35;;;11.25;;
46561;SDS011;32289;42.688;23.330;2024-01-07T19:57:53;20.08;;;10.48;;
46561;SDS011;32289;42.688;23.330;2024-01-07T20:01:34;19.13;;;10.50;;
46561;SDS011;32289;42.688;23.330;2024-01-07T20:05:17;30.23;;;13.45;;
46561;SDS011;32289;42.688;23.330;2024-01-07T20:08:58;24.08;;;10.55;;
46561;SDS011;32289;42.688;23.330;2024-01-07T20:12:39;19.85;;;9.88;;
46561;SDS011;32289;42.688;23.330;2024-01-07T20:16:20;20.20;;;9.60;;
46561;SDS011;32289;42.688;23.330;2024-01-07T20:20:00;26.05;;;10.27;;
46561;SDS011;32289;42.688;23.330;2024-01-07T20:23:41;18.45;;;9.15;;
46561;SDS011;32289;42.688;23.330;2024-01-07T20:27:23;22.92;;;9.77;;
46561;SDS011;32289;42.688;23.330;2024-01-07T20:31:04;17.58;;;8.82;;
46561;SDS011;32289;42.688;23.330;2024-01-07T20:34:45;18.73;;;9.65;;
46561;SDS011;32289;42.688;23.330;2024-01-07T20:38:25;19.67;;;10.63;;
46561;SDS011;32289;42.688;23.330;2024-01-07T20:42:06;19.80;;;9.25;;
46561;SDS011;32289;42.688;23.330;2024-01-07T20:45:47;20.88;;;9.23;;
46561;SDS011;32289;42.688;23.330;2024-01-07T20:49:28;24.45;;;12.18;;
46561;SDS011;32289;42.688;23.330;2024-01-07T20:53:08;20.00;;;8.88;;
46561;SDS011;32289;42.688;23.330;2024-01-07T20:56:49;16.38;;;9.55;;
46561;SDS011;32289;42.688;23.330;2024-01-07T21:00:30;17.60;;;9.48;;
46561;SDS011;32289;42.688;23.330;2024-01-07T21:04:11;22.42;;;10.10;;
46561;SDS011;32289;42.688;23.330;2024-01-07T21:07:51;19.77;;;9.85;;
46561;SDS011;32289;42.688;23.330;2024-01-07T21:11:32;19.58;;;9.55;;
46561;SDS011;32289;42.688;23.330;2024-01-07T21:15:12;18.95;;;9.45;;
46561;SDS011;32289;42.688;23.330;2024-01-07T21:18:55;17.40;;;9.20;;
46561;SDS011;32289;42.688;23.330;2024-01-07T21:22:36;19.83;;;9.55;;
46561;SDS011;32289;42.688;23.330;2024-01-07T21:26:20;17.17;;;9.88;;
46561;SDS011;32289;42.688;23.330;2024-01-07T21:30:01;21.05;;;11.25;;
46561;SDS011;32289;42.688;23.330;2024-01-07T21:33:43;22.17;;;11.20;;
46561;SDS011;32289;42.688;23.330;2024-01-07T21:37:24;22.45;;;10.98;;
46561;SDS011;32289;42.688;23.330;2024-01-07T21:41:05;26.90;;;11.52;;